createdAt,value
2023-03-03T00:00:33.698Z,88.98
2023-03-03T00:01:33.669Z,88.24
2023-03-03T00:02:33.668Z,87.97
2023-03-03T00:03:33.700Z,87.83
2023-03-03T00:04:33.630Z,88.08
2023-03-03T00:05:33.640Z,89.01
2023-03-03T00:06:33.610Z,89.12
2023-03-03T00:07:33.603Z,89.12
2023-03-03T00:08:33.613Z,89.01
2023-03-03T00:09:33.580Z,89.08
2023-03-03T00:10:33.592Z,88.91
2023-03-03T00:11:33.586Z,88.81
2023-03-03T00:12:33.546Z,88.66
2023-03-03T00:13:33.531Z,89.08
2023-03-03T00:14:33.553Z,88.98
2023-03-03T00:15:33.555Z,88.81
2023-03-03T00:16:33.498Z,88.70
2023-03-03T00:17:33.490Z,88.98
2023-03-03T00:18:33.499Z,89.22
2023-03-03T00:19:33.474Z,88.98
2023-03-03T00:20:33.461Z,88.81
2023-03-03T00:21:33.479Z,89.01
2023-03-03T00:22:33.528Z,89.01
2023-03-03T00:23:33.424Z,88.66
2023-03-03T00:24:33.434Z,89.18
2023-03-03T00:25:33.411Z,89.08
2023-03-03T00:26:33.385Z,87.52
2023-03-03T00:27:33.392Z,87.55
2023-03-03T00:28:33.360Z,87.66
2023-03-03T00:29:33.370Z,88.39
2023-03-03T00:30:33.343Z,89.01
2023-03-03T00:31:33.477Z,89.12
2023-03-03T00:32:33.337Z,88.91
2023-03-03T00:33:33.322Z,88.81
2023-03-03T00:34:33.307Z,88.81
2023-03-03T00:35:33.325Z,89.08
2023-03-03T00:36:33.279Z,88.81
2023-03-03T00:37:33.285Z,89.32
2023-03-03T00:38:33.348Z,88.91
2023-03-03T00:39:33.257Z,88.81
2023-03-03T00:40:33.273Z,88.95
2023-03-03T00:41:33.232Z,88.95
2023-03-03T00:42:33.230Z,89.47
2023-03-03T00:43:33.225Z,89.37
2023-03-03T00:44:33.197Z,89.06
2023-03-03T00:45:33.276Z,88.85
2023-03-03T00:46:33.211Z,89.20
2023-03-03T00:47:33.179Z,89.83
2023-03-03T00:48:33.144Z,90.35
2023-03-03T00:49:33.139Z,90.35
2023-03-03T00:50:33.128Z,90.87
2023-03-03T00:51:33.138Z,90.93
2023-03-03T00:52:33.104Z,90.62
2023-03-03T00:53:33.098Z,90.47
2023-03-03T00:54:33.077Z,90.26
2023-03-03T00:55:33.075Z,89.85
2023-03-03T00:56:33.125Z,89.81
2023-03-03T00:57:33.058Z,89.54
2023-03-03T00:58:33.036Z,88.91
2023-03-03T00:59:33.050Z,88.81
2023-03-03T01:00:34.190Z,89.06
2023-03-03T01:01:33.060Z,89.16
2023-03-03T01:02:33.144Z,89.16
2023-03-03T01:03:32.987Z,89.43
2023-03-03T01:04:32.974Z,89.12
2023-03-03T01:05:32.999Z,89.32
2023-03-03T01:06:32.957Z,89.43
2023-03-03T01:07:32.943Z,89.39
2023-03-03T01:08:32.939Z,89.43
2023-03-03T01:09:32.925Z,89.29
2023-03-03T01:10:32.908Z,88.66
2023-03-03T01:11:32.910Z,89.08
2023-03-03T01:12:32.908Z,89.08
2023-03-03T01:13:32.888Z,89.08
2023-03-03T01:14:32.955Z,88.81
2023-03-03T01:15:32.905Z,89.01
2023-03-03T01:16:32.856Z,89.08
2023-03-03T01:17:32.836Z,89.08
2023-03-03T01:18:32.850Z,88.98
2023-03-03T01:19:32.815Z,88.98
2023-03-03T01:20:32.814Z,88.98
2023-03-03T01:21:32.808Z,89.08
2023-03-03T01:22:32.770Z,88.66
2023-03-03T01:23:32.768Z,88.20
2023-03-03T01:24:33.431Z,87.99
2023-03-03T01:25:32.744Z,87.99
2023-03-03T01:26:32.725Z,87.99
2023-03-03T01:27:32.726Z,87.58
2023-03-03T01:28:32.728Z,87.79
2023-03-03T01:29:32.745Z,87.68
2023-03-03T01:30:32.684Z,87.68
2023-03-03T01:31:32.747Z,87.68
2023-03-03T01:32:32.702Z,87.58
2023-03-03T01:33:32.661Z,87.58
2023-03-03T01:34:32.639Z,87.27
2023-03-03T01:35:32.651Z,87.62
2023-03-03T01:36:32.629Z,87.89
2023-03-03T01:37:32.611Z,87.89
2023-03-03T01:38:32.599Z,87.48
2023-03-03T01:39:32.592Z,87.79
2023-03-03T01:40:32.661Z,87.54
2023-03-03T01:41:32.569Z,87.27
2023-03-03T01:42:32.565Z,87.48
2023-03-03T01:43:32.556Z,87.79
2023-03-03T01:44:32.546Z,87.16
2023-03-03T01:45:32.570Z,87.48
2023-03-03T01:46:32.547Z,87.37
2023-03-03T01:47:32.494Z,87.62
2023-03-03T01:48:32.487Z,88.08
2023-03-03T01:49:32.481Z,89.22
2023-03-03T01:50:32.967Z,89.47
2023-03-03T01:51:32.463Z,90.10
2023-03-03T01:52:32.445Z,89.95
2023-03-03T01:53:32.432Z,90.47
2023-03-03T01:54:32.430Z,90.26
2023-03-03T01:55:32.413Z,90.06
2023-03-03T01:56:32.415Z,89.91
2023-03-03T01:57:32.391Z,90.01
2023-03-03T01:58:32.386Z,89.60
2023-03-03T01:59:32.397Z,89.29
2023-03-03T02:00:32.373Z,89.39
2023-03-03T02:01:32.434Z,89.50
2023-03-03T02:02:32.342Z,89.29
2023-03-03T02:03:32.338Z,89.39
2023-03-03T02:04:32.312Z,89.39
2023-03-03T02:05:32.323Z,89.08
2023-03-03T02:06:32.299Z,88.87
2023-03-03T02:07:32.279Z,88.83
2023-03-03T02:08:32.276Z,88.31
2023-03-03T02:09:32.260Z,87.99
2023-03-03T02:10:32.246Z,87.89
2023-03-03T02:11:32.267Z,87.58
2023-03-03T02:12:32.230Z,87.99
2023-03-03T02:13:32.213Z,88.10
2023-03-03T02:14:32.203Z,88.35
2023-03-03T02:15:32.204Z,88.87
2023-03-03T02:16:32.298Z,89.18
2023-03-03T02:17:32.194Z,88.83
2023-03-03T02:18:32.168Z,89.08
2023-03-03T02:19:32.174Z,88.83
2023-03-03T02:20:32.148Z,88.83
2023-03-03T02:21:32.132Z,88.83
2023-03-03T02:22:32.136Z,88.83
2023-03-03T02:23:32.106Z,88.83
2023-03-03T02:24:32.093Z,88.93
2023-03-03T02:25:32.085Z,88.83
2023-03-03T02:26:32.076Z,88.93
2023-03-03T02:27:32.093Z,89.00
2023-03-03T02:28:32.054Z,88.20
2023-03-03T02:29:32.041Z,88.10
2023-03-03T02:30:32.038Z,87.89
2023-03-03T02:31:32.044Z,88.06
2023-03-03T02:32:32.076Z,87.43
2023-03-03T02:33:32.014Z,87.65
2023-03-03T02:34:31.992Z,87.33
2023-03-03T02:35:32.212Z,87.54
2023-03-03T02:36:31.986Z,87.33
2023-03-03T02:37:31.974Z,86.91
2023-03-03T02:38:31.958Z,87.02
2023-03-03T02:39:31.939Z,86.91
2023-03-03T02:40:31.925Z,86.81
2023-03-03T02:41:31.917Z,86.81
2023-03-03T02:42:31.930Z,86.77
2023-03-03T02:43:31.893Z,86.77
2023-03-03T02:44:31.902Z,86.91
2023-03-03T02:45:31.933Z,87.16
2023-03-03T02:46:31.870Z,87.58
2023-03-03T02:47:31.847Z,87.93
2023-03-03T02:48:31.862Z,89.08
2023-03-03T02:49:31.823Z,89.08
2023-03-03T02:50:31.823Z,89.64
2023-03-03T02:51:31.812Z,89.64
2023-03-03T02:52:31.792Z,89.85
2023-03-03T02:53:31.806Z,89.95
2023-03-03T02:54:31.804Z,89.70
2023-03-03T02:55:31.755Z,89.81
2023-03-03T02:56:31.751Z,89.60
2023-03-03T02:57:31.733Z,89.39
2023-03-03T02:58:31.739Z,89.39
2023-03-03T02:59:31.713Z,89.29
2023-03-03T03:00:31.736Z,89.39
2023-03-03T03:01:31.707Z,89.14
2023-03-03T03:02:31.678Z,88.93
2023-03-03T03:03:31.684Z,89.08
2023-03-03T03:04:31.827Z,88.83
2023-03-03T03:05:31.647Z,88.73
2023-03-03T03:06:31.635Z,88.93
2023-03-03T03:07:31.623Z,89.04
2023-03-03T03:08:31.629Z,88.93
2023-03-03T03:09:31.602Z,89.04
2023-03-03T03:10:31.609Z,88.52
2023-03-03T03:11:31.585Z,89.04
2023-03-03T03:12:31.573Z,88.98
2023-03-03T03:13:31.781Z,88.93
2023-03-03T03:14:31.552Z,88.83
2023-03-03T03:15:31.533Z,88.83
2023-03-03T03:16:31.584Z,88.93
2023-03-03T03:17:31.513Z,88.93
2023-03-03T03:18:31.516Z,89.14
2023-03-03T03:19:31.505Z,88.20
2023-03-03T03:20:31.498Z,88.20
2023-03-03T03:21:31.464Z,88.73
2023-03-03T03:22:31.456Z,88.68
2023-03-03T03:23:31.459Z,88.93
2023-03-03T03:24:31.461Z,88.62
2023-03-03T03:25:31.429Z,88.93
2023-03-03T03:26:31.410Z,89.10
2023-03-03T03:27:31.405Z,88.93
2023-03-03T03:28:31.452Z,88.89
2023-03-03T03:29:31.395Z,88.73
2023-03-03T03:30:31.404Z,88.93
2023-03-03T03:31:31.359Z,88.83
2023-03-03T03:32:31.442Z,88.83
2023-03-03T03:33:31.362Z,88.83
2023-03-03T03:34:31.327Z,89.04
2023-03-03T03:35:31.342Z,88.83
2023-03-03T03:36:31.325Z,88.73
2023-03-03T03:37:31.295Z,88.83
2023-03-03T03:38:31.322Z,88.83
2023-03-03T03:39:31.271Z,88.87
2023-03-03T03:40:31.271Z,88.83
2023-03-03T03:41:31.249Z,88.83
2023-03-03T03:42:31.261Z,88.93
2023-03-03T03:43:31.227Z,89.10
2023-03-03T03:44:31.255Z,88.93
2023-03-03T03:45:31.206Z,88.89
2023-03-03T03:46:31.210Z,88.17
2023-03-03T03:47:31.198Z,88.62
2023-03-03T03:48:31.169Z,89.04
2023-03-03T03:49:31.164Z,88.93
2023-03-03T03:50:31.155Z,88.93
2023-03-03T03:51:31.142Z,88.93
2023-03-03T03:52:31.184Z,88.93
2023-03-03T03:53:31.136Z,88.83
2023-03-03T03:54:31.291Z,88.73
2023-03-03T03:55:31.096Z,89.04
2023-03-03T03:56:31.116Z,88.93
2023-03-03T03:57:31.096Z,88.98
2023-03-03T03:58:31.072Z,88.98
2023-03-03T03:59:31.065Z,88.87
2023-03-03T04:00:31.048Z,89.04
2023-03-03T04:01:31.198Z,89.25
2023-03-03T04:02:31.109Z,88.87
2023-03-03T04:03:31.117Z,89.35
2023-03-03T04:04:30.998Z,89.18
2023-03-03T04:05:30.984Z,89.39
2023-03-03T04:06:30.980Z,89.39
2023-03-03T04:07:30.987Z,89.35
2023-03-03T04:08:30.976Z,89.08
2023-03-03T04:09:30.995Z,89.35
2023-03-03T04:10:30.940Z,89.50
2023-03-03T04:11:30.929Z,89.29
2023-03-03T04:12:30.932Z,88.93
2023-03-03T04:13:30.913Z,89.18
2023-03-03T04:14:30.941Z,89.08
2023-03-03T04:15:30.943Z,89.39
2023-03-03T04:16:30.875Z,88.98
2023-03-03T04:17:30.878Z,89.50
2023-03-03T04:18:30.863Z,89.60
2023-03-03T04:19:30.863Z,89.60
2023-03-03T04:20:30.835Z,89.60
2023-03-03T04:21:30.849Z,89.39
2023-03-03T04:22:30.807Z,90.01
2023-03-03T04:23:30.914Z,89.91
2023-03-03T04:24:30.813Z,89.60
2023-03-03T04:25:30.774Z,89.50
2023-03-03T04:26:30.765Z,89.29
2023-03-03T04:27:30.775Z,89.29
2023-03-03T04:28:30.751Z,89.29
2023-03-03T04:29:30.763Z,89.18
2023-03-03T04:30:30.729Z,89.35
2023-03-03T04:31:30.715Z,89.39
2023-03-03T04:32:30.765Z,89.25
2023-03-03T04:33:30.738Z,89.56
2023-03-03T04:34:30.706Z,89.39
2023-03-03T04:35:30.693Z,89.39
2023-03-03T04:36:30.663Z,89.29
2023-03-03T04:37:30.648Z,89.29
2023-03-03T04:38:30.637Z,89.50
2023-03-03T04:39:30.634Z,89.50
2023-03-03T04:40:30.645Z,89.39
2023-03-03T04:41:30.606Z,89.25
2023-03-03T04:42:30.593Z,89.18
2023-03-03T04:43:30.609Z,89.60
2023-03-03T04:44:30.572Z,88.98
2023-03-03T04:45:30.559Z,88.93
2023-03-03T04:46:30.704Z,88.93
2023-03-03T04:47:30.536Z,88.87
2023-03-03T04:48:30.545Z,89.08
2023-03-03T04:49:30.546Z,88.98
2023-03-03T04:50:30.504Z,89.29
2023-03-03T04:51:30.491Z,89.39
2023-03-03T04:52:30.485Z,89.39
2023-03-03T04:53:30.476Z,89.70
2023-03-03T04:54:30.458Z,89.29
2023-03-03T04:55:30.460Z,89.08
2023-03-03T04:56:30.462Z,89.18
2023-03-03T04:57:30.428Z,89.39
2023-03-03T04:58:30.482Z,89.18
2023-03-03T04:59:30.406Z,89.08
2023-03-03T05:00:30.394Z,88.87
2023-03-03T05:01:30.422Z,89.08
2023-03-03T05:02:30.368Z,89.12
2023-03-03T05:03:30.373Z,89.18
2023-03-03T05:04:30.370Z,89.22
2023-03-03T05:05:30.335Z,89.32
2023-03-03T05:06:30.328Z,89.64
2023-03-03T05:07:30.317Z,89.64
2023-03-03T05:08:30.316Z,89.43
2023-03-03T05:09:30.296Z,89.85
2023-03-03T05:10:30.286Z,89.70
2023-03-03T05:11:30.288Z,89.95
2023-03-03T05:12:30.274Z,89.85
2023-03-03T05:13:30.258Z,89.95
2023-03-03T05:14:30.235Z,89.81
2023-03-03T05:15:30.294Z,89.54
2023-03-03T05:16:30.299Z,89.54
2023-03-03T05:17:30.305Z,89.32
2023-03-03T05:18:30.192Z,89.43
2023-03-03T05:19:30.191Z,89.75
2023-03-03T05:20:30.178Z,89.54
2023-03-03T05:21:30.170Z,89.64
2023-03-03T05:22:30.145Z,89.54
2023-03-03T05:23:30.130Z,89.68
2023-03-03T05:24:30.124Z,89.68
2023-03-03T05:25:30.131Z,89.89
2023-03-03T05:26:30.110Z,90.26
2023-03-03T05:27:30.088Z,89.78
2023-03-03T05:28:30.124Z,89.89
2023-03-03T05:29:30.069Z,89.75
2023-03-03T05:30:30.054Z,89.85
2023-03-03T05:31:30.147Z,89.64
2023-03-03T05:32:30.128Z,89.43
2023-03-03T05:33:30.025Z,89.43
2023-03-03T05:34:30.015Z,89.58
2023-03-03T05:35:30.067Z,89.43
2023-03-03T05:36:30.108Z,89.75
2023-03-03T05:37:29.978Z,89.85
2023-03-03T05:38:29.964Z,90.06
2023-03-03T05:39:29.957Z,89.68
2023-03-03T05:40:29.978Z,89.75
2023-03-03T05:41:29.939Z,90.62
2023-03-03T05:42:29.940Z,90.62
2023-03-03T05:43:29.911Z,90.37
2023-03-03T05:44:29.941Z,90.41
2023-03-03T05:45:29.929Z,90.62
2023-03-03T05:46:29.898Z,90.62
2023-03-03T05:47:29.870Z,90.52
2023-03-03T05:48:29.868Z,90.83
2023-03-03T05:49:29.841Z,90.72
2023-03-03T05:50:29.833Z,90.66
2023-03-03T05:51:29.839Z,90.45
2023-03-03T05:52:29.817Z,90.35
2023-03-03T05:53:29.804Z,91.08
2023-03-03T05:54:29.799Z,91.18
2023-03-03T05:55:29.803Z,91.08
2023-03-03T05:56:29.788Z,91.08
2023-03-03T05:57:29.773Z,90.62
2023-03-03T05:58:29.857Z,90.41
2023-03-03T05:59:29.751Z,90.72
2023-03-03T06:00:29.776Z,90.72
2023-03-03T06:01:29.783Z,90.72
2023-03-03T06:02:29.709Z,90.62
2023-03-03T06:03:29.694Z,90.58
2023-03-03T06:04:29.718Z,90.58
2023-03-03T06:05:29.673Z,90.31
2023-03-03T06:06:29.688Z,90.58
2023-03-03T06:07:29.651Z,90.79
2023-03-03T06:08:29.689Z,90.79
2023-03-03T06:09:29.638Z,90.47
2023-03-03T06:10:29.654Z,90.47
2023-03-03T06:11:29.609Z,90.58
2023-03-03T06:12:29.600Z,90.58
2023-03-03T06:13:29.606Z,90.58
2023-03-03T06:14:29.608Z,90.58
2023-03-03T06:15:29.694Z,90.58
2023-03-03T06:16:29.694Z,90.58
2023-03-03T06:18:31.394Z,89.95
2023-03-03T06:19:31.395Z,89.95
2023-03-03T06:20:31.363Z,89.91
2023-03-03T06:21:31.355Z,89.91
2023-03-03T06:22:31.376Z,89.75
2023-03-03T06:23:31.338Z,89.75
2023-03-03T06:24:31.319Z,89.75
2023-03-03T06:25:31.316Z,89.60
2023-03-03T06:26:31.305Z,89.70
2023-03-03T06:27:31.299Z,89.81
2023-03-03T06:28:31.298Z,89.64
2023-03-03T06:29:31.269Z,89.70
2023-03-03T06:30:31.264Z,89.39
2023-03-03T06:31:31.263Z,89.29
2023-03-03T06:32:31.344Z,89.50
2023-03-03T06:33:31.237Z,89.29
2023-03-03T06:34:31.230Z,89.01
2023-03-03T06:35:31.311Z,88.91
2023-03-03T06:36:31.188Z,88.81
2023-03-03T06:37:31.178Z,88.60
2023-03-03T06:38:31.177Z,88.70
2023-03-03T06:39:31.186Z,88.91
2023-03-03T06:40:31.178Z,89.18
2023-03-03T06:41:31.131Z,89.32
2023-03-03T06:42:31.140Z,88.91
2023-03-03T06:43:31.113Z,88.81
2023-03-03T06:44:31.108Z,88.81
2023-03-03T06:45:31.146Z,88.91
2023-03-03T06:46:31.107Z,89.22
2023-03-03T06:47:31.098Z,89.01
2023-03-03T06:48:31.085Z,89.01
2023-03-03T06:49:31.048Z,89.32
2023-03-03T06:50:31.033Z,88.91
2023-03-03T06:51:31.073Z,89.01
2023-03-03T06:52:31.155Z,89.22
2023-03-03T06:53:31.008Z,89.01
2023-03-03T06:54:31.277Z,89.32
2023-03-03T06:55:30.979Z,89.32
2023-03-03T06:56:30.984Z,89.32
2023-03-03T06:57:30.962Z,89.22
2023-03-03T06:58:30.945Z,89.12
2023-03-03T06:59:30.952Z,88.91
2023-03-03T07:00:31.312Z,89.22
2023-03-03T07:01:30.934Z,89.01
2023-03-03T07:02:30.907Z,88.87
2023-03-03T07:03:30.893Z,89.32
2023-03-03T07:04:31.143Z,88.87
2023-03-03T07:05:30.894Z,88.76
2023-03-03T07:06:30.896Z,89.18
2023-03-03T07:07:30.872Z,88.98
2023-03-03T07:08:30.850Z,88.87
2023-03-03T07:09:30.850Z,89.12
2023-03-03T07:10:30.953Z,88.24
2023-03-03T07:11:30.833Z,88.14
2023-03-03T07:12:30.812Z,88.08
2023-03-03T07:13:30.797Z,88.29
2023-03-03T07:14:30.789Z,88.04
2023-03-03T07:15:30.782Z,88.24
2023-03-03T07:16:30.842Z,88.14
2023-03-03T07:17:30.785Z,88.60
2023-03-03T07:18:30.761Z,89.18
2023-03-03T07:19:30.733Z,88.87
2023-03-03T07:20:30.756Z,89.18
2023-03-03T07:21:30.718Z,88.35
2023-03-03T07:22:30.701Z,87.93
2023-03-03T07:23:30.695Z,87.93
2023-03-03T07:24:30.725Z,88.08
2023-03-03T07:25:30.679Z,88.70
2023-03-03T07:26:30.685Z,88.98
2023-03-03T07:27:30.657Z,89.18
2023-03-03T07:28:30.667Z,88.76
2023-03-03T07:29:30.693Z,89.18
2023-03-03T07:30:30.819Z,89.08
2023-03-03T07:31:30.622Z,88.81
2023-03-03T07:32:30.664Z,88.81
2023-03-03T07:33:30.604Z,88.91
2023-03-03T07:34:30.593Z,89.22
2023-03-03T07:35:30.671Z,89.22
2023-03-03T07:36:30.585Z,89.01
2023-03-03T07:37:30.620Z,89.22
2023-03-03T07:38:30.553Z,88.76
2023-03-03T07:39:30.537Z,88.87
2023-03-03T07:40:30.508Z,88.76
2023-03-03T07:41:30.502Z,88.87
2023-03-03T07:42:30.492Z,88.76
2023-03-03T07:43:30.511Z,88.98
2023-03-03T07:44:30.487Z,89.18
2023-03-03T07:45:30.457Z,89.29
2023-03-03T07:46:30.588Z,88.87
2023-03-03T07:47:30.455Z,88.73
2023-03-03T07:48:30.442Z,88.76
2023-03-03T07:49:30.418Z,89.04
2023-03-03T07:50:30.401Z,88.93
2023-03-03T07:51:30.395Z,88.98
2023-03-03T07:52:30.396Z,89.14
2023-03-03T07:53:30.388Z,88.98
2023-03-03T07:54:30.363Z,88.93
2023-03-03T07:55:30.364Z,88.93
2023-03-03T07:56:30.413Z,88.87
2023-03-03T07:57:30.325Z,88.93
2023-03-03T07:58:30.334Z,89.25
2023-03-03T07:59:30.321Z,88.83
2023-03-03T08:00:30.376Z,88.83
2023-03-03T08:01:30.284Z,88.83
2023-03-03T08:02:30.273Z,88.52
2023-03-03T08:03:30.267Z,89.14
2023-03-03T08:04:30.427Z,88.73
2023-03-03T08:05:30.342Z,89.14
2023-03-03T08:06:30.227Z,88.31
2023-03-03T08:07:30.217Z,88.06
2023-03-03T08:08:30.725Z,87.99
2023-03-03T08:09:30.215Z,87.96
2023-03-03T08:10:30.252Z,88.06
2023-03-03T08:11:30.171Z,87.75
2023-03-03T08:12:30.166Z,88.10
2023-03-03T08:13:30.251Z,88.10
2023-03-03T08:14:30.139Z,87.79
2023-03-03T08:15:30.337Z,87.79
2023-03-03T08:16:30.109Z,88.10
2023-03-03T08:17:30.107Z,88.20
2023-03-03T08:18:30.107Z,88.06
2023-03-03T08:19:30.078Z,87.96
2023-03-03T08:20:30.263Z,87.85
2023-03-03T08:21:30.045Z,87.43
2023-03-03T08:22:30.619Z,87.23
2023-03-03T08:23:30.044Z,87.43
2023-03-03T08:24:30.044Z,87.23
2023-03-03T08:25:30.020Z,87.02
2023-03-03T08:26:30.025Z,87.23
2023-03-03T08:27:29.988Z,86.77
2023-03-03T08:28:29.989Z,87.08
2023-03-03T08:29:29.958Z,86.57
2023-03-03T08:30:29.945Z,86.29
2023-03-03T08:31:40.826Z,86.35
2023-03-03T08:32:31.188Z,86.83
2023-03-03T08:33:29.925Z,86.46
2023-03-03T08:34:29.975Z,86.46
2023-03-03T08:35:29.927Z,86.35
2023-03-03T08:36:29.878Z,87.08
2023-03-03T08:37:29.866Z,87.19
2023-03-03T08:38:29.872Z,87.19
2023-03-03T08:39:29.859Z,86.42
2023-03-03T08:40:29.854Z,86.32
2023-03-03T08:41:29.837Z,86.46
2023-03-03T08:42:29.811Z,86.52
2023-03-03T08:43:29.824Z,86.42
2023-03-03T08:44:29.791Z,86.35
2023-03-03T08:45:29.779Z,86.52
2023-03-03T08:46:29.803Z,86.25
2023-03-03T08:47:29.763Z,86.46
2023-03-03T08:48:29.754Z,86.15
2023-03-03T08:49:29.752Z,86.98
2023-03-03T08:50:29.729Z,86.67
2023-03-03T08:51:29.740Z,86.73
2023-03-03T08:52:29.722Z,87.04
2023-03-03T08:53:29.726Z,87.08
2023-03-03T08:54:29.682Z,86.52
2023-03-03T08:55:29.678Z,86.77
2023-03-03T08:56:29.682Z,86.57
2023-03-03T08:57:29.737Z,86.21
2023-03-03T08:58:35.153Z,86.77
2023-03-03T08:59:30.647Z,86.63
2023-03-03T09:00:29.624Z,86.52
2023-03-03T09:01:29.691Z,85.90
2023-03-03T09:02:29.604Z,85.69
2023-03-03T09:03:29.595Z,85.59
2023-03-03T09:04:29.706Z,85.80
2023-03-03T09:05:29.561Z,85.69
2023-03-03T09:06:29.594Z,85.69
2023-03-03T09:07:30.126Z,85.59
2023-03-03T09:08:29.533Z,86.42
2023-03-03T09:09:29.543Z,86.73
2023-03-03T09:10:29.533Z,86.63
2023-03-03T09:11:29.508Z,85.65
2023-03-03T09:12:29.503Z,85.44
2023-03-03T09:13:29.484Z,85.80
2023-03-03T09:14:29.467Z,85.06
2023-03-03T09:15:29.478Z,85.24
2023-03-03T09:16:29.507Z,85.44
2023-03-03T09:17:29.595Z,85.24
2023-03-03T09:18:29.423Z,84.51
2023-03-03T09:19:29.487Z,84.61
2023-03-03T09:20:29.404Z,84.92
2023-03-03T09:21:29.392Z,84.92
2023-03-03T09:22:29.381Z,84.78
2023-03-03T09:23:29.368Z,84.99
2023-03-03T09:24:29.431Z,84.78
2023-03-03T09:25:29.344Z,84.27
2023-03-03T09:26:29.409Z,84.37
2023-03-03T09:27:29.323Z,83.74
2023-03-03T09:28:29.332Z,84.01
2023-03-03T09:29:29.424Z,83.74
2023-03-03T09:30:29.318Z,83.50
2023-03-03T09:31:29.307Z,83.29
2023-03-03T09:32:29.312Z,82.42
2023-03-03T09:33:29.264Z,82.67
2023-03-03T09:34:29.261Z,82.67
2023-03-03T09:35:29.293Z,82.98
2023-03-03T09:36:29.438Z,82.98
2023-03-03T09:37:29.214Z,82.87
2023-03-03T09:38:29.256Z,82.98
2023-03-03T09:39:29.218Z,82.56
2023-03-03T09:40:29.182Z,82.67
2023-03-03T09:41:29.176Z,82.53
2023-03-03T09:42:29.166Z,82.32
2023-03-03T09:43:29.152Z,82.01
2023-03-03T09:44:29.154Z,82.11
2023-03-03T09:45:29.147Z,81.66
2023-03-03T09:46:29.190Z,81.56
2023-03-03T09:47:29.108Z,81.76
2023-03-03T09:48:29.093Z,81.30
2023-03-03T09:49:29.102Z,80.89
2023-03-03T09:50:29.194Z,80.79
2023-03-03T09:51:29.083Z,80.13
2023-03-03T09:52:29.047Z,80.16
2023-03-03T09:53:29.048Z,79.92
2023-03-03T09:54:29.045Z,79.61
2023-03-03T09:55:29.016Z,78.99
2023-03-03T09:56:29.023Z,78.75
2023-03-03T09:57:29.019Z,78.44
2023-03-03T09:58:28.985Z,77.98
2023-03-03T09:59:28.992Z,77.57
2023-03-03T10:00:29.005Z,77.47
2023-03-03T10:01:28.964Z,77.01
2023-03-03T10:02:28.942Z,77.12
2023-03-03T10:03:28.976Z,76.64
2023-03-03T10:04:28.959Z,76.23
2023-03-03T10:05:28.922Z,77.15
2023-03-03T10:06:28.904Z,77.19
2023-03-03T10:07:29.634Z,77.29
2023-03-03T10:08:31.202Z,78.23
2023-03-03T10:09:29.167Z,78.27
2023-03-03T10:10:28.853Z,78.16
2023-03-03T10:11:28.843Z,79.41
2023-03-03T10:12:28.829Z,79.20
2023-03-03T10:13:28.824Z,79.06
2023-03-03T10:14:29.158Z,78.54
2023-03-03T10:15:28.833Z,78.12
2023-03-03T10:16:28.854Z,77.81
2023-03-03T10:17:28.779Z,76.95
2023-03-03T10:18:28.790Z,77.40
2023-03-03T10:19:28.773Z,76.98
2023-03-03T10:20:34.787Z,76.95
2023-03-03T10:21:29.725Z,77.15
2023-03-03T10:22:28.769Z,77.15
2023-03-03T10:23:28.730Z,77.22
2023-03-03T10:24:28.709Z,76.19
2023-03-03T10:25:28.690Z,76.12
2023-03-03T10:26:42.146Z,77.26
2023-03-03T10:27:29.665Z,76.95
2023-03-03T10:28:28.659Z,76.74
2023-03-03T10:29:30.726Z,77.05
2023-03-03T10:30:39.864Z,76.84
2023-03-03T10:31:29.728Z,76.81
2023-03-03T10:32:28.835Z,76.15
2023-03-03T10:33:28.900Z,76.67
2023-03-03T10:34:28.588Z,75.78
2023-03-03T10:35:28.608Z,75.74
2023-03-03T10:36:30.466Z,76.36
2023-03-03T10:37:28.581Z,75.74
2023-03-03T10:38:28.547Z,75.84
2023-03-03T10:39:28.544Z,76.01
2023-03-03T10:40:28.636Z,76.05
2023-03-03T10:41:28.516Z,75.91
2023-03-03T10:42:28.690Z,75.50
2023-03-03T10:43:32.250Z,75.60
2023-03-03T10:44:28.480Z,75.40
2023-03-03T10:45:28.527Z,75.40
2023-03-03T10:46:28.472Z,74.98
2023-03-03T10:47:28.642Z,75.50
2023-03-03T10:48:28.480Z,74.98
2023-03-03T10:49:28.444Z,75.60
2023-03-03T10:50:28.425Z,75.43
2023-03-03T10:51:28.408Z,75.84
2023-03-03T10:52:28.442Z,75.95
2023-03-03T10:53:28.394Z,76.05
2023-03-03T10:54:28.452Z,76.29
2023-03-03T10:55:28.355Z,77.22
2023-03-03T10:56:28.345Z,77.33
2023-03-03T10:57:28.356Z,76.98
2023-03-03T10:58:28.425Z,77.01
2023-03-03T10:59:29.292Z,76.81
2023-03-03T11:00:28.303Z,76.29
2023-03-03T11:01:28.446Z,77.22
2023-03-03T11:02:28.349Z,77.29
2023-03-03T11:03:28.282Z,76.57
2023-03-03T11:04:28.331Z,76.81
2023-03-03T11:05:28.246Z,77.19
2023-03-03T11:06:28.362Z,75.84
2023-03-03T11:07:28.227Z,76.67
2023-03-03T11:08:28.383Z,76.26
2023-03-03T11:09:28.204Z,75.60
2023-03-03T11:10:28.214Z,75.81
2023-03-03T11:11:28.180Z,75.95
2023-03-03T11:12:28.177Z,75.95
2023-03-03T11:13:28.174Z,75.84
2023-03-03T11:14:28.183Z,76.67
2023-03-03T11:15:28.143Z,76.36
2023-03-03T11:16:28.264Z,76.78
2023-03-03T11:17:28.127Z,76.98
2023-03-03T11:18:28.104Z,77.29
2023-03-03T11:19:28.179Z,77.19
2023-03-03T11:20:28.105Z,77.39
2023-03-03T11:21:28.086Z,76.78
2023-03-03T11:22:28.075Z,77.09
2023-03-03T11:23:28.048Z,76.78
2023-03-03T11:24:28.220Z,76.67
2023-03-03T11:25:28.028Z,77.19
2023-03-03T11:26:28.034Z,75.32
2023-03-03T11:27:28.004Z,76.64
2023-03-03T11:28:27.995Z,76.67
2023-03-03T11:29:28.014Z,76.32
2023-03-03T11:30:28.614Z,76.22
2023-03-03T11:31:30.015Z,75.91
2023-03-03T11:32:27.975Z,76.95
2023-03-03T11:33:27.946Z,75.91
2023-03-03T11:34:27.932Z,77.19
2023-03-03T11:35:27.970Z,76.78
2023-03-03T11:36:27.938Z,77.29
2023-03-03T11:37:27.894Z,77.39
2023-03-03T11:38:27.891Z,76.74
2023-03-03T11:39:27.874Z,76.53
2023-03-03T11:40:27.866Z,76.78
2023-03-03T11:41:27.876Z,77.29
2023-03-03T11:42:27.838Z,77.50
2023-03-03T11:43:36.517Z,77.70
2023-03-03T11:44:28.830Z,77.60
2023-03-03T11:45:27.826Z,77.50
2023-03-03T11:46:27.820Z,77.39
2023-03-03T11:47:29.708Z,77.70
2023-03-03T11:48:27.775Z,78.02
2023-03-03T11:49:27.770Z,78.12
2023-03-03T11:50:27.757Z,77.50
2023-03-03T11:51:28.218Z,77.36
2023-03-03T11:52:27.767Z,77.36
2023-03-03T11:53:27.725Z,77.67
2023-03-03T11:54:27.710Z,76.98
2023-03-03T11:55:27.705Z,77.56
2023-03-03T11:56:27.686Z,77.47
2023-03-03T11:57:27.691Z,77.15
2023-03-03T11:58:27.669Z,77.36
2023-03-03T11:59:27.656Z,77.47
2023-03-03T12:00:27.640Z,77.33
2023-03-03T12:01:27.803Z,76.81
2023-03-03T12:02:27.669Z,76.91
2023-03-03T12:03:27.654Z,76.70
2023-03-03T12:04:27.597Z,76.91
2023-03-03T12:05:27.598Z,76.81
2023-03-03T12:06:27.575Z,76.91
2023-03-03T12:07:27.577Z,76.70
2023-03-03T12:08:27.570Z,76.60
2023-03-03T12:09:27.539Z,76.70
2023-03-03T12:10:27.531Z,77.12
2023-03-03T12:11:27.551Z,77.53
2023-03-03T12:12:27.540Z,77.05
2023-03-03T12:13:27.497Z,77.01
2023-03-03T12:14:27.481Z,77.15
2023-03-03T12:15:27.511Z,77.05
2023-03-03T12:16:27.463Z,77.98
2023-03-03T12:17:27.448Z,77.91
2023-03-03T12:18:34.506Z,78.74
2023-03-03T12:19:27.439Z,78.53
2023-03-03T12:20:27.487Z,79.33
2023-03-03T12:21:27.437Z,79.26
2023-03-03T12:22:27.518Z,78.08
2023-03-03T12:23:27.387Z,77.84
2023-03-03T12:24:27.406Z,77.84
2023-03-03T12:25:27.368Z,77.87
2023-03-03T12:26:27.367Z,77.74
2023-03-03T12:27:27.342Z,77.53
2023-03-03T12:28:27.330Z,77.33
2023-03-03T12:29:27.333Z,77.43
2023-03-03T12:30:27.320Z,77.22
2023-03-03T12:31:27.363Z,76.60
2023-03-03T12:32:27.375Z,76.60
2023-03-03T12:33:27.293Z,76.98
2023-03-03T12:34:27.268Z,77.19
2023-03-03T12:35:27.269Z,76.01
2023-03-03T12:36:27.259Z,76.12
2023-03-03T12:37:27.259Z,75.70
2023-03-03T12:38:27.275Z,75.19
2023-03-03T12:39:34.704Z,75.49
2023-03-03T12:40:28.215Z,75.67
2023-03-03T12:41:27.453Z,75.67
2023-03-03T12:42:27.197Z,75.26
2023-03-03T12:43:27.169Z,75.01
2023-03-03T12:44:27.158Z,75.01
2023-03-03T12:45:27.152Z,75.43
2023-03-03T12:46:28.952Z,74.84
2023-03-03T12:47:27.121Z,75.05
2023-03-03T12:48:27.115Z,75.49
2023-03-03T12:49:28.199Z,75.63
2023-03-03T12:50:27.115Z,75.63
2023-03-03T12:51:27.091Z,76.91
2023-03-03T12:52:27.071Z,76.60
2023-03-03T12:53:27.070Z,77.33